createdAt,value
2023-04-07T00:01:58.448Z,97485.16
2023-04-07T00:04:26.689Z,97453.28
2023-04-07T00:06:54.938Z,97478.25
2023-04-07T00:09:23.289Z,97483.44
2023-04-07T00:11:51.913Z,97492.94
2023-04-07T00:14:21.444Z,97486.88
2023-04-07T00:16:49.621Z,97463.59
2023-04-07T00:19:17.811Z,97042.66
2023-04-07T00:21:46.012Z,97463.63
2023-04-07T00:24:18.508Z,97474.78
2023-04-07T00:26:56.840Z,97475.69
2023-04-07T00:29:26.533Z,97435.19
2023-04-07T00:31:54.722Z,97472.25
2023-04-07T00:34:22.912Z,97473.94
2023-04-07T00:36:52.450Z,97404.16
2023-04-07T00:39:21.241Z,97466.16
2023-04-07T00:41:49.925Z,97466.19
2023-04-07T00:44:18.074Z,97429.16
2023-04-07T00:46:49.179Z,97468.81
2023-04-07T00:49:19.001Z,97466.25
2023-04-07T00:51:47.986Z,97459.34
2023-04-07T00:54:16.785Z,97464.56
2023-04-07T00:56:45.005Z,97461.97
2023-04-07T00:59:13.245Z,97441.28
2023-04-07T01:01:47.256Z,97436.13
2023-04-07T01:04:24.632Z,97460.28
2023-04-07T01:06:58.261Z,97436.09
2023-04-07T01:09:31.780Z,97461.13
2023-04-07T01:12:07.191Z,97455.97
2023-04-07T01:14:41.546Z,97359.44
2023-04-07T01:17:11.976Z,97459.41
2023-04-07T01:19:48.566Z,97455.97
2023-04-07T01:22:22.358Z,97379.28
2023-04-07T01:25:13.292Z,97423.22
2023-04-07T01:27:50.885Z,97445.63
2023-04-07T01:30:22.504Z,97415.44
2023-04-07T01:32:54.366Z,97327.56
2023-04-07T01:35:24.625Z,97319.78
2023-04-07T01:37:54.417Z,97379.28
2023-04-07T01:40:23.954Z,97424.91
2023-04-07T01:42:53.702Z,97444.75
2023-04-07T01:45:24.092Z,97447.34
2023-04-07T01:47:52.994Z,97441.31
2023-04-07T01:50:22.722Z,97441.31
2023-04-07T01:52:51.400Z,97435.28
2023-04-07T01:55:19.577Z,97404.25
2023-04-07T01:57:47.683Z,97430.97
2023-04-07T02:00:16.486Z,97434.44
2023-04-07T02:02:48.010Z,97425.81
2023-04-07T02:05:20.558Z,97430.09
2023-04-07T02:07:53.380Z,97433.56
2023-04-07T02:10:25.110Z,97432.72
2023-04-07T02:12:53.747Z,97410.28
2023-04-07T02:15:23.806Z,97393.91
2023-04-07T02:17:56.213Z,97370.63
2023-04-07T02:20:25.758Z,96988.38
2023-04-07T02:22:56.019Z,97424.94
2023-04-07T02:25:26.682Z,97401.69
2023-04-07T02:27:55.589Z,97434.41
2023-04-07T02:30:24.414Z,97418.03
2023-04-07T02:32:54.320Z,97445.59
2023-04-07T02:35:22.615Z,97434.41
2023-04-07T02:37:51.128Z,97431.84
2023-04-07T02:40:19.408Z,97409.41
2023-04-07T02:42:48.123Z,97433.56
2023-04-07T02:45:16.572Z,97426.66
2023-04-07T02:47:44.809Z,97410.28
2023-04-07T02:50:14.621Z,97433.56
2023-04-07T02:52:42.809Z,97442.16
2023-04-07T02:55:11.638Z,97432.72
2023-04-07T02:57:39.929Z,97422.38
2023-04-07T03:00:09.431Z,97324.97
2023-04-07T03:02:37.854Z,97418.91
2023-04-07T03:05:06.798Z,97408.56
2023-04-07T03:07:36.328Z,97414.59
2023-04-07T03:10:04.479Z,97411.16
2023-04-07T03:12:32.634Z,97392.19
2023-04-07T03:15:01.153Z,97418.06
2023-04-07T03:17:29.310Z,97412.84
2023-04-07T03:19:57.750Z,97412.88
2023-04-07T03:22:26.029Z,97381.84
2023-04-07T03:24:55.681Z,97399.94
2023-04-07T03:27:23.875Z,97393.91
2023-04-07T03:29:52.260Z,97361.16
2023-04-07T03:32:20.568Z,97311.19
2023-04-07T03:34:48.691Z,97393.03
2023-04-07T03:37:16.879Z,97393.88
2023-04-07T03:39:45.082Z,97362.88
2023-04-07T03:42:14.788Z,97392.16
2023-04-07T03:44:42.958Z,97393.03
2023-04-07T03:47:11.144Z,97381.81
2023-04-07T03:49:39.712Z,97344.78
2023-04-07T03:52:07.924Z,97388.72
2023-04-07T03:54:36.594Z,97385.28
2023-04-07T03:57:05.117Z,97381.78
2023-04-07T03:59:34.743Z,97390.44
2023-04-07T04:02:03.080Z,97388.72
2023-04-07T04:04:31.214Z,97382.69
2023-04-07T04:06:59.271Z,97402.53
2023-04-07T04:09:27.414Z,97383.56
2023-04-07T04:11:56.464Z,97384.38
2023-04-07T04:14:24.593Z,97391.28
2023-04-07T04:16:55.068Z,97393.91
2023-04-07T04:19:23.258Z,97393.91
2023-04-07T04:21:51.485Z,97401.66
2023-04-07T04:24:19.738Z,97400.78
2023-04-07T04:26:47.982Z,97259.53
2023-04-07T04:29:16.706Z,97218.19
2023-04-07T04:31:45.000Z,97398.19
2023-04-07T04:34:14.712Z,97369.75
2023-04-07T04:36:42.950Z,97380.09
2023-04-07T04:39:11.189Z,97407.69
2023-04-07T04:41:39.353Z,97402.53
2023-04-07T04:44:07.739Z,97399.94
2023-04-07T04:46:36.293Z,97409.44
2023-04-07T04:49:04.517Z,97397.31
2023-04-07T04:51:34.076Z,97380.09
2023-04-07T04:54:03.954Z,97400.81
2023-04-07T04:56:32.204Z,97378.41
2023-04-07T04:59:00.570Z,97403.34
2023-04-07T05:01:29.197Z,97404.22
2023-04-07T05:03:58.706Z,97401.63
2023-04-07T05:06:27.712Z,97398.16
2023-04-07T05:08:57.301Z,97393.91
2023-04-07T05:11:25.937Z,97398.16
2023-04-07T05:13:54.244Z,97396.44
2023-04-07T05:16:22.718Z,97405.91
2023-04-07T05:18:50.902Z,97375.75
2023-04-07T05:21:20.265Z,97373.16
2023-04-07T05:23:48.504Z,97405.00
2023-04-07T05:26:18.065Z,97392.94
2023-04-07T05:28:46.286Z,97416.19
2023-04-07T05:31:14.562Z,97412.75
2023-04-07T05:33:42.743Z,97410.13
2023-04-07T05:36:11.316Z,97412.66
2023-04-07T05:38:39.529Z,97410.94
2023-04-07T05:41:07.720Z,97416.97
2023-04-07T05:43:37.323Z,97417.78
2023-04-07T05:46:05.667Z,97414.25
2023-04-07T05:48:33.884Z,97407.31
2023-04-07T05:51:01.974Z,97399.47
2023-04-07T05:53:30.169Z,97412.41
2023-04-07T05:55:58.352Z,97411.56
2023-04-07T05:58:26.573Z,97408.94
2023-04-07T06:00:56.142Z,97416.72
2023-04-07T06:03:24.392Z,97403.72
2023-04-07T06:05:52.618Z,97401.09
2023-04-07T06:08:20.790Z,97404.50
2023-04-07T06:10:49.021Z,97408.81
2023-04-07T06:13:17.183Z,97404.44
2023-04-07T06:15:45.486Z,97406.00
2023-04-07T06:18:15.024Z,97392.22
2023-04-07T06:20:43.326Z,97380.13
2023-04-07T06:23:11.609Z,97415.34
2023-04-07T06:25:39.805Z,97411.88
2023-04-07T06:28:08.125Z,97381.59
2023-04-07T06:30:36.409Z,97405.44
2023-04-07T06:33:04.681Z,97401.66
2023-04-07T06:35:34.331Z,97402.28
2023-04-07T06:38:02.464Z,97393.41
2023-04-07T06:40:30.632Z,97389.59
2023-04-07T06:42:58.834Z,97392.16
2023-04-07T06:45:27.005Z,97373.88
2023-04-07T06:47:55.281Z,97374.50
2023-04-07T06:50:23.529Z,97336.50
2023-04-07T06:52:53.275Z,97374.09
2023-04-07T06:55:21.459Z,97342.75
2023-04-07T06:57:50.974Z,97387.94
2023-04-07T07:00:19.607Z,97356.75
2023-04-07T07:02:47.950Z,97385.91
2023-04-07T07:05:16.239Z,97392.72
2023-04-07T07:07:44.545Z,97374.47
2023-04-07T07:10:14.209Z,97354.19
2023-04-07T07:12:42.500Z,97364.13
2023-04-07T07:15:11.352Z,97388.19
2023-04-07T07:17:39.671Z,97391.66
2023-04-07T07:20:08.994Z,97388.13
2023-04-07T07:22:37.228Z,97392.34
2023-04-07T07:25:06.391Z,97374.84
2023-04-07T07:27:36.201Z,97386.19
2023-04-07T07:30:04.576Z,97388.75
2023-04-07T07:32:32.760Z,97357.34
2023-04-07T07:35:01.058Z,97382.84
2023-04-07T07:37:29.315Z,97382.31
2023-04-07T07:39:58.045Z,97357.59
2023-04-07T07:42:26.228Z,97347.72
2023-04-07T07:44:56.036Z,97359.50
2023-04-07T07:47:24.460Z,97371.06
2023-04-07T07:49:52.737Z,97343.25
2023-04-07T07:52:21.293Z,97344.31
2023-04-07T07:54:49.737Z,97362.47
2023-04-07T07:57:18.371Z,97328.88
2023-04-07T07:59:46.794Z,97364.38
2023-04-07T08:02:16.487Z,97363.00
2023-04-07T08:04:44.863Z,97278.13
2023-04-07T08:07:13.231Z,97364.13
2023-04-07T08:09:41.650Z,97358.16
2023-04-07T08:12:09.841Z,97336.06
2023-04-07T08:14:37.982Z,97352.56
2023-04-07T08:17:06.211Z,97358.03
2023-04-07T08:19:35.845Z,97333.28
2023-04-07T08:22:03.978Z,97353.78
2023-04-07T08:24:32.343Z,97345.03
2023-04-07T08:27:01.413Z,97324.75
2023-04-07T08:29:30.609Z,97338.75
2023-04-07T08:31:59.541Z,97334.63
2023-04-07T08:34:27.922Z,97328.38
2023-04-07T08:36:57.591Z,97333.88
2023-04-07T08:39:26.751Z,97328.44
2023-04-07T08:41:57.442Z,97326.63
2023-04-07T08:44:29.383Z,97228.53
2023-04-07T08:47:00.270Z,97303.41
2023-04-07T08:49:30.284Z,97319.66
2023-04-07T08:52:04.037Z,97322.19
2023-04-07T08:54:34.199Z,97310.38
2023-04-07T08:57:04.168Z,97311.06
2023-04-07T08:59:33.937Z,97305.84
2023-04-07T09:02:02.394Z,97306.56
2023-04-07T09:04:30.997Z,97305.63
2023-04-07T09:07:02.245Z,97302.34
2023-04-07T09:09:31.258Z,97311.09
2023-04-07T09:11:59.601Z,97303.88
2023-04-07T09:14:27.823Z,97305.59
2023-04-07T09:16:57.177Z,97286.25
2023-04-07T09:19:27.703Z,97303.00
2023-04-07T09:21:55.862Z,97308.72
2023-04-07T09:24:26.661Z,97186.25
2023-04-07T09:27:15.201Z,97310.13
2023-04-07T09:29:46.053Z,97312.59
2023-04-07T09:32:14.715Z,97142.34
2023-04-07T09:34:43.096Z,97297.78
2023-04-07T09:37:23.538Z,97289.91
2023-04-07T09:39:54.251Z,97292.91
2023-04-07T09:42:22.811Z,97267.00
2023-04-07T09:44:51.101Z,97294.47
2023-04-07T09:47:19.282Z,97291.69
2023-04-07T09:49:53.838Z,97282.38
2023-04-07T09:52:26.702Z,97285.00
2023-04-07T09:54:57.717Z,97284.09
2023-04-07T09:57:26.602Z,97283.66
2023-04-07T09:59:57.286Z,97286.97
2023-04-07T10:02:26.942Z,97258.50
2023-04-07T10:04:55.201Z,97265.22
2023-04-07T10:07:23.651Z,97276.03
2023-04-07T10:09:51.742Z,97269.38
2023-04-07T10:12:21.407Z,97276.34
2023-04-07T10:14:50.056Z,97238.75
2023-04-07T10:17:20.846Z,97260.19
2023-04-07T10:19:51.420Z,97253.72
2023-04-07T10:22:20.289Z,97249.91
2023-04-07T10:24:57.616Z,97244.78
2023-04-07T10:27:33.098Z,97242.63
2023-04-07T10:30:04.144Z,97221.69
2023-04-07T10:32:32.866Z,97235.69
2023-04-07T10:35:01.445Z,97235.63
2023-04-07T10:37:29.741Z,97242.16
2023-04-07T10:40:29.151Z,97228.66
2023-04-07T10:43:01.273Z,97222.47
2023-04-07T10:46:03.421Z,97222.66
2023-04-07T10:48:33.447Z,97186.44
2023-04-07T10:51:18.958Z,97202.88
2023-04-07T10:54:17.937Z,97218.19
2023-04-07T10:57:12.277Z,97210.53
2023-04-07T10:59:47.189Z,97192.09
2023-04-07T11:02:35.275Z,97207.16
2023-04-07T11:05:04.345Z,97154.91
2023-04-07T11:07:47.290Z,97211.09
2023-04-07T11:10:16.978Z,97151.47
2023-04-07T11:12:45.156Z,97198.72
2023-04-07T11:15:22.144Z,97198.34
2023-04-07T11:18:18.241Z,97186.84
2023-04-07T11:20:52.930Z,97188.34
2023-04-07T11:23:23.183Z,97178.56
2023-04-07T11:25:53.214Z,97086.78
2023-04-07T11:28:21.471Z,97174.53
2023-04-07T11:30:54.128Z,97084.75
2023-04-07T11:33:23.630Z,97179.72
2023-04-07T11:35:57.042Z,97177.00
2023-04-07T11:38:27.514Z,97166.72
2023-04-07T11:40:56.678Z,97158.31
2023-04-07T11:43:26.633Z,97172.16
2023-04-07T11:46:12.092Z,97165.34
2023-04-07T11:48:41.881Z,97143.81
2023-04-07T11:51:18.048Z,97120.50
2023-04-07T11:53:47.519Z,97148.81
2023-04-07T11:56:18.850Z,97154.66
2023-04-07T11:58:50.601Z,97151.22
2023-04-07T12:01:21.332Z,97159.31
2023-04-07T12:04:00.303Z,97160.06
2023-04-07T12:06:30.474Z,97157.66
2023-04-07T12:08:58.625Z,97154.22
2023-04-07T12:11:26.774Z,97128.16
2023-04-07T12:13:55.334Z,97154.91
2023-04-07T12:16:25.419Z,97119.00
2023-04-07T12:18:53.989Z,96983.19
2023-04-07T12:21:22.237Z,97147.31
2023-04-07T12:23:50.956Z,97140.81
2023-04-07T12:26:21.732Z,97137.91
2023-04-07T12:28:51.110Z,97134.56
2023-04-07T12:31:19.652Z,97138.16
2023-04-07T12:33:49.534Z,96982.34
2023-04-07T12:36:17.971Z,97132.66
2023-04-07T12:38:46.122Z,96999.28
2023-04-07T12:41:14.232Z,97126.53
2023-04-07T12:43:42.630Z,97123.94
2023-04-07T12:46:11.716Z,97081.59
2023-04-07T12:48:39.882Z,97033.09
2023-04-07T12:51:09.538Z,97126.78
2023-04-07T12:53:37.718Z,97132.44
2023-04-07T12:56:06.127Z,97124.75
2023-04-07T12:58:34.615Z,97115.00
2023-04-07T13:01:02.747Z,97109.50
2023-04-07T13:03:31.086Z,97117.19
2023-04-07T13:06:01.524Z,97112.72
2023-04-07T13:08:31.216Z,97113.66
2023-04-07T13:10:59.398Z,97091.38
2023-04-07T13:13:27.547Z,97113.19
2023-04-07T13:15:55.718Z,97073.97
2023-04-07T13:18:23.851Z,97000.44
2023-04-07T13:21:06.679Z,97110.41
2023-04-07T13:23:43.895Z,97107.06
2023-04-07T13:26:12.379Z,97108.16
2023-04-07T13:28:40.608Z,97109.13
2023-04-07T13:31:11.010Z,97047.38
2023-04-07T13:33:41.311Z,96999.41
2023-04-07T13:36:09.511Z,97089.38
2023-04-07T13:38:37.932Z,97101.69
2023-04-07T13:41:07.440Z,97106.25
2023-04-07T13:43:35.698Z,97106.91
2023-04-07T13:46:06.296Z,97111.13
2023-04-07T13:48:37.909Z,97117.41
2023-04-07T13:51:06.239Z,96956.66
2023-04-07T13:53:34.429Z,97108.28
2023-04-07T13:56:03.682Z,97111.69
2023-04-07T13:58:33.522Z,97056.44
2023-04-07T14:01:02.002Z,97107.38
2023-04-07T14:03:30.466Z,97036.66
2023-04-07T14:06:01.353Z,97112.69
2023-04-07T14:08:29.822Z,97109.13
2023-04-07T14:10:58.055Z,97105.00
2023-04-07T14:13:26.479Z,97116.41
2023-04-07T14:15:56.165Z,97100.31
2023-04-07T14:18:24.798Z,97073.66
2023-04-07T14:20:52.938Z,97085.88
2023-04-07T14:23:33.884Z,97092.44
2023-04-07T14:26:04.785Z,97105.97
2023-04-07T14:28:32.978Z,97097.63
2023-04-07T14:31:02.546Z,97074.25
2023-04-07T14:33:30.802Z,97093.25
2023-04-07T14:35:58.965Z,97095.34
2023-04-07T14:38:27.504Z,97101.06
2023-04-07T14:40:55.729Z,97106.28
2023-04-07T14:43:23.835Z,97103.00
2023-04-07T14:45:52.211Z,97101.34
2023-04-07T14:48:22.172Z,97100.16
2023-04-07T14:50:59.197Z,97100.44
2023-04-07T14:53:36.890Z,97106.75
2023-04-07T14:56:05.936Z,97086.53
2023-04-07T14:58:34.198Z,96994.97
2023-04-07T15:01:04.445Z,97111.88
2023-04-07T15:03:36.862Z,97108.22
2023-04-07T15:06:08.434Z,97111.38
2023-04-07T15:08:36.667Z,97098.22
2023-04-07T15:11:06.119Z,97110.41
2023-04-07T15:13:34.508Z,97075.53
2023-04-07T15:16:08.893Z,97118.97
2023-04-07T15:18:40.478Z,96944.06
2023-04-07T15:21:08.886Z,97104.31
2023-04-07T15:23:38.980Z,97134.34
2023-04-07T15:26:07.564Z,97115.31
2023-04-07T15:28:35.837Z,97016.53
2023-04-07T15:31:08.343Z,97120.19
2023-04-07T15:33:38.657Z,97119.06
2023-04-07T15:36:07.448Z,97136.88
2023-04-07T15:38:36.035Z,97138.88
2023-04-07T15:41:04.315Z,97123.44
2023-04-07T15:43:32.443Z,97125.66
2023-04-07T15:46:00.625Z,97143.78
2023-04-07T15:48:30.134Z,97148.31
2023-04-07T15:50:59.688Z,97142.78
2023-04-07T15:53:27.955Z,97157.47
2023-04-07T15:55:56.159Z,97164.25
2023-04-07T15:58:24.308Z,97165.00
2023-04-07T16:00:52.794Z,97170.31
2023-04-07T16:03:21.087Z,97174.56
2023-04-07T16:05:51.209Z,97171.88
2023-04-07T16:08:20.863Z,97180.72
2023-04-07T16:10:49.072Z,97185.25
2023-04-07T16:13:17.291Z,97167.88
2023-04-07T16:15:45.543Z,97192.34
2023-04-07T16:18:13.630Z,97189.31
2023-04-07T16:20:41.852Z,97194.94
2023-04-07T16:23:10.889Z,97210.78
2023-04-07T16:25:40.424Z,97196.13
2023-04-07T16:28:08.599Z,97220.00
2023-04-07T16:30:36.872Z,97222.28
2023-04-07T16:33:05.096Z,97231.84
2023-04-07T16:35:33.386Z,97246.06
2023-04-07T16:38:04.796Z,97220.72
2023-04-07T16:40:33.895Z,97252.34
2023-04-07T16:43:03.565Z,97238.09
2023-04-07T16:45:31.790Z,97255.72
2023-04-07T16:47:59.988Z,97235.28
2023-04-07T16:50:28.220Z,97250.97
2023-04-07T16:52:57.781Z,97251.25
2023-04-07T16:55:25.987Z,97272.81
2023-04-07T16:57:54.141Z,97280.47
2023-04-07T17:00:23.913Z,97257.75
2023-04-07T17:02:52.217Z,97283.03
2023-04-07T17:05:20.416Z,97291.13
2023-04-07T17:07:49.094Z,97292.56
2023-04-07T17:10:17.457Z,97283.91
2023-04-07T17:12:46.306Z,97298.09
2023-04-07T17:15:15.404Z,97310.00
2023-04-07T17:17:45.014Z,97204.81
2023-04-07T17:20:14.458Z,97322.69
2023-04-07T17:22:42.553Z,97307.69
2023-04-07T17:25:11.680Z,97329.38
2023-04-07T17:27:39.844Z,97331.34
2023-04-07T17:30:09.527Z,97334.19
2023-04-07T17:32:37.734Z,97341.41
2023-04-07T17:35:08.296Z,97346.75
2023-04-07T17:37:36.545Z,97355.84
2023-04-07T17:40:04.834Z,97351.47
2023-04-07T17:42:33.042Z,97361.28
2023-04-07T17:45:01.963Z,97366.16
2023-04-07T17:47:30.166Z,97349.25
2023-04-07T17:49:58.335Z,97354.72
2023-04-07T17:52:29.629Z,97361.78
2023-04-07T17:54:58.184Z,97378.09
2023-04-07T17:57:26.649Z,97383.50
2023-04-07T17:59:54.858Z,97385.34
2023-04-07T18:02:23.310Z,97363.59
2023-04-07T18:04:51.807Z,97397.13
2023-04-07T18:07:21.061Z,97406.81
2023-04-07T18:09:50.850Z,97406.88
2023-04-07T18:12:19.036Z,97434.19
2023-04-07T18:14:47.134Z,97419.28
2023-04-07T18:17:15.405Z,97426.28
2023-04-07T18:19:43.640Z,97431.63
2023-04-07T18:22:11.875Z,97415.47
2023-04-07T18:24:39.987Z,97438.44
2023-04-07T18:27:10.151Z,97417.31
2023-04-07T18:29:38.327Z,97425.25
2023-04-07T18:32:06.654Z,97436.31
2023-04-07T18:34:34.894Z,97449.31
2023-04-07T18:37:03.098Z,97459.88
2023-04-07T18:39:31.242Z,97426.34
2023-04-07T18:41:59.387Z,97435.78
2023-04-07T18:44:29.229Z,97432.50
2023-04-07T18:46:57.415Z,97464.22
2023-04-07T18:49:27.911Z,97451.91
2023-04-07T18:51:56.696Z,97474.50
2023-04-07T18:54:27.171Z,97475.78
2023-04-07T18:56:56.249Z,97480.13
2023-04-07T18:59:24.847Z,97475.69
2023-04-07T19:01:54.740Z,97491.41
2023-04-07T19:04:24.906Z,97488.06
2023-04-07T19:06:53.615Z,97469.50
2023-04-07T19:09:22.179Z,97496.25
2023-04-07T19:11:51.435Z,97495.19
2023-04-07T19:14:19.784Z,97486.09
2023-04-07T19:16:48.178Z,97500.81
2023-04-07T19:19:18.114Z,97507.00
2023-04-07T19:21:46.412Z,97505.34
2023-04-07T19:24:14.554Z,97512.97
2023-04-07T19:26:43.036Z,97513.81
2023-04-07T19:29:12.611Z,97508.50
2023-04-07T19:31:40.932Z,97509.56
2023-04-07T19:34:09.097Z,97514.72
2023-04-07T19:36:38.743Z,97515.44
2023-04-07T19:39:06.915Z,97514.63
2023-04-07T19:41:35.070Z,97426.44
2023-04-07T19:44:03.294Z,97448.47
2023-04-07T19:46:33.365Z,97525.75
2023-04-07T19:49:01.610Z,97508.00
2023-04-07T19:51:29.768Z,97528.63
2023-04-07T19:53:59.336Z,97527.91
2023-04-07T19:56:27.553Z,97536.63
2023-04-07T19:58:55.869Z,97503.72
2023-04-07T20:01:24.206Z,97529.63
2023-04-07T20:03:52.672Z,97504.25
2023-04-07T20:06:24.914Z,97531.75
2023-04-07T20:08:53.024Z,97536.78
2023-04-07T20:11:22.632Z,97537.06
2023-04-07T20:13:50.861Z,97533.50
2023-04-07T20:16:19.055Z,97528.47
2023-04-07T20:18:48.076Z,97533.66
2023-04-07T20:21:16.475Z,97531.25
2023-04-07T20:23:44.732Z,97493.44
2023-04-07T20:26:12.911Z,97522.78
2023-04-07T20:28:42.706Z,97527.16
2023-04-07T20:31:10.894Z,97536.53
2023-04-07T20:33:39.246Z,97531.38
2023-04-07T20:36:07.725Z,97541.16
2023-04-07T20:38:35.961Z,97494.94
2023-04-07T20:41:04.152Z,97545.91
2023-04-07T20:43:32.369Z,97517.63
2023-04-07T20:46:02.201Z,97543.38
2023-04-07T20:48:30.375Z,97499.47
2023-04-07T20:50:58.516Z,97530.50
2023-04-07T20:53:27.431Z,97527.84
2023-04-07T20:55:56.242Z,97540.56
2023-04-07T20:58:24.643Z,97441.16
2023-04-07T21:00:56.977Z,97533.88
2023-04-07T21:03:27.684Z,97439.50
2023-04-07T21:05:56.773Z,97543.47
2023-04-07T21:08:25.631Z,97438.69
2023-04-07T21:10:53.862Z,97531.16
2023-04-07T21:13:22.596Z,97536.38
2023-04-07T21:15:50.925Z,97506.41
2023-04-07T21:18:19.512Z,97541.84
2023-04-07T21:20:49.346Z,97487.84
2023-04-07T21:23:17.464Z,97538.53
2023-04-07T21:25:45.559Z,97541.13
2023-04-07T21:28:13.759Z,97535.06
2023-04-07T21:30:42.690Z,97532.41
2023-04-07T21:33:11.223Z,97530.69
2023-04-07T21:35:39.573Z,97514.41
2023-04-07T21:38:09.226Z,97475.91
2023-04-07T21:40:37.380Z,97522.25
2023-04-07T21:43:05.522Z,97521.25
2023-04-07T21:45:33.725Z,97518.09
2023-04-07T21:48:01.989Z,97519.97
2023-04-07T21:50:30.418Z,97515.50
2023-04-07T21:52:58.617Z,97506.25
2023-04-07T21:55:28.326Z,97515.16
2023-04-07T21:57:56.637Z,97455.91
2023-04-07T22:00:24.959Z,97517.81
2023-04-07T22:02:53.420Z,97517.81
2023-04-07T22:05:22.418Z,97510.09
2023-04-07T22:07:50.615Z,97511.78
2023-04-07T22:10:18.829Z,97503.09
2023-04-07T22:12:48.480Z,97479.81
2023-04-07T22:15:16.746Z,97502.28
2023-04-07T22:17:45.129Z,97502.28
2023-04-07T22:20:13.608Z,97504.84
2023-04-07T22:22:42.072Z,97478.03
2023-04-07T22:25:10.837Z,97510.97
2023-04-07T22:27:38.942Z,97473.91
2023-04-07T22:30:11.032Z,97443.88
2023-04-07T22:32:39.218Z,97503.34
2023-04-07T22:35:07.745Z,97508.63
2023-04-07T22:37:35.848Z,97507.88
2023-04-07T22:40:04.112Z,97506.13
2023-04-07T22:42:32.307Z,97522.63
2023-04-07T22:45:00.489Z,97510.38
2023-04-07T22:47:30.125Z,97507.00
2023-04-07T22:49:58.388Z,97505.38
2023-04-07T22:52:26.522Z,97476.84
2023-04-07T22:54:54.692Z,97502.38
2023-04-07T22:57:22.820Z,97497.06
2023-04-07T22:59:50.886Z,97493.84
2023-04-07T23:02:19.085Z,97440.63
2023-04-07T23:04:48.916Z,97493.03
2023-04-07T23:07:17.283Z,97499.22
2023-04-07T23:09:45.491Z,97492.22
2023-04-07T23:12:13.769Z,97499.75
2023-04-07T23:14:41.933Z,97475.06
2023-04-07T23:17:10.096Z,97497.53
2023-04-07T23:19:38.204Z,97479.34
2023-04-07T23:22:07.788Z,97476.81
2023-04-07T23:24:35.929Z,97497.56
2023-04-07T23:27:04.161Z,97494.84
2023-04-07T23:29:32.966Z,97497.41
2023-04-07T23:32:01.236Z,97472.22
2023-04-07T23:34:29.511Z,97323.69
2023-04-07T23:36:58.181Z,97489.63
2023-04-07T23:39:27.756Z,97446.88
2023-04-07T23:41:55.925Z,97489.16
2023-04-07T23:44:24.054Z,97462.41
2023-04-07T23:46:52.205Z,97484.03
2023-04-07T23:49:20.345Z,97478.84
2023-04-07T23:51:48.607Z,97472.78
2023-04-07T23:54:16.843Z,97464.88
2023-04-07T23:56:46.648Z,97470.00
2023-04-07T23:59:14.872Z,97469.31
